createdAt,value
2022-07-28T18:01:58.426Z,27.10
2022-07-28T18:04:25.292Z,27.00
2022-07-28T18:06:52.031Z,26.60
2022-07-28T18:09:18.760Z,26.30
2022-07-28T18:11:55.817Z,26.10
2022-07-28T18:14:24.918Z,26.10
2022-07-28T18:16:51.728Z,26.00
2022-07-28T18:19:18.483Z,26.00
2022-07-28T18:21:45.265Z,25.90
2022-07-28T18:24:12.072Z,25.90
2022-07-28T18:26:38.898Z,25.60
2022-07-28T18:29:05.673Z,25.10
2022-07-28T18:31:32.447Z,24.80
2022-07-28T18:33:59.254Z,24.50
2022-07-28T18:36:25.966Z,24.30
2022-07-28T18:38:52.716Z,24.10
2022-07-28T18:41:19.629Z,23.90
2022-07-28T18:43:46.390Z,23.70
2022-07-28T18:46:13.706Z,23.40
2022-07-28T18:48:40.672Z,23.30
2022-07-28T18:51:07.457Z,23.20
2022-07-28T18:53:34.564Z,23.20
2022-07-28T18:56:01.271Z,23.00
2022-07-28T18:58:27.992Z,22.90
2022-07-28T19:00:54.810Z,22.70
2022-07-28T19:03:21.663Z,22.60
2022-07-28T19:05:48.456Z,22.50
2022-07-28T19:08:15.241Z,22.40
2022-07-28T19:10:43.978Z,22.30
2022-07-28T19:13:12.855Z,22.20
2022-07-28T19:15:40.097Z,22.10
2022-07-28T19:18:08.823Z,22.00
2022-07-28T19:20:38.316Z,21.90
2022-07-28T19:23:05.663Z,21.80
2022-07-28T19:25:32.532Z,21.70
2022-07-28T19:27:59.265Z,21.70
2022-07-28T19:30:26.602Z,21.60
2022-07-28T19:32:53.499Z,21.50
2022-07-28T19:35:20.226Z,21.40
2022-07-28T19:37:47.236Z,21.40
2022-07-28T19:40:14.002Z,21.20
2022-07-28T19:42:40.755Z,21.10
2022-07-28T19:45:07.510Z,21.00
2022-07-28T19:47:36.553Z,21.00
2022-07-28T19:50:05.057Z,20.90
2022-07-28T19:52:32.017Z,20.90
2022-07-28T19:54:58.809Z,20.80
2022-07-28T19:57:26.796Z,20.70
2022-07-28T19:59:53.525Z,20.60
2022-07-28T20:02:20.272Z,20.50
2022-07-28T20:04:47.130Z,20.40
2022-07-28T20:07:13.898Z,20.30
2022-07-28T20:09:40.691Z,20.30
2022-07-28T20:12:08.889Z,20.20
2022-07-28T20:14:36.786Z,20.20
2022-07-28T20:17:03.549Z,20.20
2022-07-28T20:19:30.307Z,20.10
2022-07-28T20:21:57.309Z,20.10
2022-07-28T20:24:24.160Z,20.00
2022-07-28T20:26:50.857Z,20.00
2022-07-28T20:29:17.585Z,19.90
2022-07-28T20:31:44.311Z,19.90
2022-07-28T20:34:12.812Z,19.90
2022-07-28T20:36:40.010Z,19.80
2022-07-28T20:39:21.413Z,19.80
2022-07-28T20:41:53.478Z,19.70
2022-07-28T20:44:29.106Z,19.60
2022-07-28T20:46:58.436Z,19.50
2022-07-28T20:49:25.279Z,19.50
2022-07-28T20:51:52.122Z,19.50
2022-07-28T20:54:19.096Z,19.40
2022-07-28T20:56:45.994Z,19.40
2022-07-28T20:59:13.402Z,19.40
2022-07-28T21:01:40.291Z,19.30
2022-07-28T21:04:07.118Z,19.30
2022-07-28T21:06:38.320Z,19.20
2022-07-28T21:09:05.340Z,19.20
2022-07-28T21:11:34.914Z,19.10
2022-07-28T21:14:02.283Z,19.00
2022-07-28T21:16:29.132Z,19.00
2022-07-28T21:18:55.968Z,19.00
2022-07-28T21:21:22.930Z,18.90
2022-07-28T21:23:49.692Z,18.90
2022-07-28T21:26:16.426Z,18.90
2022-07-28T21:29:01.976Z,18.90
2022-07-28T21:31:28.708Z,18.80
2022-07-28T21:33:55.422Z,18.80
2022-07-28T21:36:22.752Z,18.80
2022-07-28T21:38:49.492Z,18.70
2022-07-28T21:41:18.607Z,18.70
2022-07-28T21:43:45.459Z,18.60
2022-07-28T21:46:12.259Z,18.60
2022-07-28T21:48:39.141Z,18.60
2022-07-28T21:51:15.710Z,18.60
2022-07-28T21:53:46.176Z,18.60
2022-07-28T21:56:13.483Z,18.50
2022-07-28T21:58:40.220Z,18.40
2022-07-28T22:01:07.041Z,18.40
2022-07-28T22:03:33.894Z,18.40
2022-07-28T22:06:00.661Z,18.40
2022-07-28T22:08:27.423Z,18.40
2022-07-28T22:10:54.215Z,18.40
2022-07-28T22:13:20.914Z,18.40
2022-07-28T22:15:47.707Z,18.40
2022-07-28T22:18:16.795Z,18.40
2022-07-28T22:20:43.831Z,18.30
2022-07-28T22:23:19.952Z,18.30
2022-07-28T22:25:56.101Z,18.20
2022-07-28T22:28:29.682Z,18.30
2022-07-28T22:30:57.248Z,18.30
2022-07-28T22:33:24.020Z,18.20
2022-07-28T22:35:51.479Z,18.20
2022-07-28T22:38:18.228Z,18.30
2022-07-28T22:40:45.084Z,18.20
2022-07-28T22:43:11.789Z,18.20
2022-07-28T22:45:50.136Z,18.20
2022-07-28T22:48:18.313Z,18.20
2022-07-28T22:50:45.069Z,18.20
2022-07-28T22:53:11.765Z,18.20
2022-07-28T22:58:22.883Z,18.20
2022-07-28T23:00:49.869Z,18.20
2022-07-28T23:03:18.387Z,18.10
2022-07-28T23:05:45.539Z,18.10
2022-07-28T23:08:12.267Z,18.10
2022-07-28T23:10:39.831Z,18.10
